Time;durP1;ratioP1;P1;durP2;ratioP2;P2;SDS_P1;SDS_P2;PMS_P1;PMS_P2;Temp;Humidity;BMP_temperature;BMP_pressure;BME280_temperature;BME280_humidity;BME280_pressure;Samples;Min_cycle;Max_cycle;Signal;HPM_P1;HPM_P2
2023/05/03 00:01:42;;;;;;;31.23;16.13;;;;;;;;;;4990499;28;20431;-71
2023/05/03 00:04:09;;;;;;;31.23;16.50;;;;;;;;;;5007926;28;20427;-71
2023/05/03 00:06:36;;;;;;;33.40;17.03;;;;;;;;;;5003232;28;20810;-71
2023/05/03 00:09:03;;;;;;;31.73;16.87;;;;;;;;;;5027928;28;20442;-70
2023/05/03 00:11:30;;;;;;;31.27;16.00;;;;;;;;;;5027694;28;20561;-69
2023/05/03 00:13:56;;;;;;;29.80;15.10;;;;;;;;;;5027654;28;20439;-69
2023/05/03 00:16:23;;;;;;;28.03;15.57;;;;;;;;;;5027687;28;20820;-68
2023/05/03 00:18:51;;;;;;;32.27;16.23;;;;;;;;;;5010010;28;20418;-69
2023/05/03 00:21:18;;;;;;;33.20;18.10;;;;;;;;;;5019977;28;21110;-69
2023/05/03 00:23:44;;;;;;;35.80;17.47;;;;;;;;;;5008214;28;20434;-69
2023/05/03 00:26:11;;;;;;;32.90;17.43;;;;;;;;;;5011580;28;20477;-69
2023/05/03 00:28:38;;;;;;;29.47;16.80;;;;;;;;;;5011367;28;20423;-69
2023/05/03 00:31:05;;;;;;;32.53;16.90;;;;;;;;;;5011401;28;20482;-69
2023/05/03 00:33:32;;;;;;;34.77;17.93;;;;;;;;;;4994117;28;20432;-69
2023/05/03 00:35:58;;;;;;;33.87;17.80;;;;;;;;;;5011332;28;21059;-69
2023/05/03 00:38:25;;;;;;;37.83;19.40;;;;;;;;;;5011294;28;20526;-69
2023/05/03 00:40:55;;;;;;;36.67;19.87;;;;;;;;;;5001377;28;20808;-69
2023/05/03 00:43:21;;;;;;;37.50;19.53;;;;;;;;;;5010947;28;20559;-69
2023/05/03 00:45:49;;;;;;;39.80;19.60;;;;;;;;;;5011244;28;20442;-69
2023/05/03 00:48:17;;;;;;;33.33;18.53;;;;;;;;;;5011172;28;20411;-69
2023/05/03 00:50:44;;;;;;;36.63;19.43;;;;;;;;;;4993806;28;20505;-69
2023/05/03 00:53:11;;;;;;;35.60;20.00;;;;;;;;;;4976993;28;20447;-69
2023/05/03 00:55:38;;;;;;;33.00;19.30;;;;;;;;;;4993649;28;20443;-69
2023/05/03 00:58:05;;;;;;;39.07;19.50;;;;;;;;;;4995969;28;20457;-69
2023/05/03 01:00:32;;;;;;;39.93;20.93;;;;;;;;;;4993487;28;20493;-69
2023/05/03 01:02:58;;;;;;;43.13;20.83;;;;;;;;;;4993452;28;20443;-69
2023/05/03 01:05:25;;;;;;;36.53;18.77;;;;;;;;;;4993251;28;20459;-69
2023/05/03 01:07:55;;;;;;;39.90;22.50;;;;;;;;;;4976779;28;20447;-69
2023/05/03 01:10:32;;;;;;;40.00;21.17;;;;;;;;;;4993260;28;20540;-69
2023/05/03 01:13:18;;;;;;;39.90;20.10;;;;;;;;;;5010608;28;20438;-69
2023/05/03 01:15:49;;;;;;;37.33;20.67;;;;;;;;;;5010461;28;20445;-69
2023/05/03 01:18:17;;;;;;;31.17;17.80;;;;;;;;;;4976916;28;20455;-69
2023/05/03 01:20:46;;;;;;;30.20;15.13;;;;;;;;;;4997551;28;20479;-69
2023/05/03 01:23:17;;;;;;;26.10;14.37;;;;;;;;;;4993348;28;20458;-69
2023/05/03 01:25:45;;;;;;;27.93;14.20;;;;;;;;;;4977175;28;20527;-69
2023/05/03 01:28:11;;;;;;;25.97;14.60;;;;;;;;;;4992777;28;20443;-69
2023/05/03 01:30:38;;;;;;;26.30;14.47;;;;;;;;;;4992559;28;20585;-69
2023/05/03 01:33:17;;;;;;;27.03;14.57;;;;;;;;;;5010688;28;20431;-69
2023/05/03 01:36:01;;;;;;;28.83;15.90;;;;;;;;;;5009922;28;20439;-69
2023/05/03 01:38:29;;;;;;;31.03;16.27;;;;;;;;;;4990884;28;20455;-69
2023/05/03 01:40:57;;;;;;;30.97;15.83;;;;;;;;;;4987097;28;20822;-69
2023/05/03 02:15:23;;;;;;;20.07;10.47;;;;;;;;;;4989545;28;20419;-68
2023/05/03 02:17:53;;;;;;;17.07;8.67;;;;;;;;;;4990198;28;20855;-68
2023/05/03 02:20:20;;;;;;;12.13;6.60;;;;;;;;;;4999279;28;21030;-68
2023/05/03 02:22:47;;;;;;;14.50;6.60;;;;;;;;;;4999362;28;20857;-68
2023/05/03 02:25:15;;;;;;;14.27;6.67;;;;;;;;;;5009306;28;20427;-68
2023/05/03 02:27:43;;;;;;;19.13;6.97;;;;;;;;;;5007907;28;20443;-68
2023/05/03 02:30:10;;;;;;;15.77;6.50;;;;;;;;;;5009302;28;20981;-68
2023/05/03 02:32:41;;;;;;;14.27;6.73;;;;;;;;;;5008104;28;21166;-68
2023/05/03 02:35:08;;;;;;;15.87;6.90;;;;;;;;;;5007843;28;20443;-68
2023/05/03 02:37:35;;;;;;;12.60;6.47;;;;;;;;;;5009278;28;20807;-68
2023/05/03 02:40:08;;;;;;;13.87;6.87;;;;;;;;;;5000690;28;20508;-68
2023/05/03 02:42:36;;;;;;;11.13;6.13;;;;;;;;;;5011027;28;20443;-68
2023/05/03 02:45:04;;;;;;;14.43;6.40;;;;;;;;;;5011285;28;20953;-68
2023/05/03 02:47:31;;;;;;;12.53;6.33;;;;;;;;;;5010270;28;20549;-68
2023/05/03 02:49:58;;;;;;;14.73;6.70;;;;;;;;;;5010825;28;20545;-68
2023/05/03 02:52:24;;;;;;;11.57;6.77;;;;;;;;;;5010721;28;20450;-68
2023/05/03 02:54:52;;;;;;;15.53;6.67;;;;;;;;;;5025611;28;20431;-68
2023/05/03 02:57:19;;;;;;;17.40;6.53;;;;;;;;;;4991184;28;20451;-68
2023/05/03 02:59:45;;;;;;;11.87;6.63;;;;;;;;;;5008978;28;20434;-68
2023/05/03 03:02:12;;;;;;;14.20;5.80;;;;;;;;;;5007873;28;20443;-68
2023/05/03 03:04:39;;;;;;;10.93;5.97;;;;;;;;;;5007356;28;20467;-68
2023/05/03 03:07:08;;;;;;;13.67;6.33;;;;;;;;;;5007055;28;20506;-68
2023/05/03 03:09:34;;;;;;;9.90;6.57;;;;;;;;;;5008681;28;20434;-68
2023/05/03 03:12:02;;;;;;;11.80;6.90;;;;;;;;;;5000612;28;20478;-68
2023/05/03 03:14:29;;;;;;;14.37;6.40;;;;;;;;;;5028071;28;20439;-68
2023/05/03 03:16:56;;;;;;;15.33;6.37;;;;;;;;;;5010749;28;20999;-68
2023/05/03 03:19:23;;;;;;;14.67;6.73;;;;;;;;;;5009730;28;20450;-68
2023/05/03 03:21:50;;;;;;;11.30;6.50;;;;;;;;;;4994084;28;20438;-68
2023/05/03 03:24:17;;;;;;;14.50;6.97;;;;;;;;;;5028473;28;20513;-68
2023/05/03 03:26:44;;;;;;;9.27;5.73;;;;;;;;;;5010689;28;20889;-68
2023/05/03 03:29:10;;;;;;;10.73;6.30;;;;;;;;;;5027073;28;20444;-68
2023/05/03 03:31:40;;;;;;;12.83;6.00;;;;;;;;;;5010055;28;20853;-68
2023/05/03 03:34:07;;;;;;;10.97;5.80;;;;;;;;;;5028066;28;20430;-68
2023/05/03 03:36:36;;;;;;;11.93;6.00;;;;;;;;;;5028080;28;20556;-68
2023/05/03 03:39:04;;;;;;;13.37;5.70;;;;;;;;;;5010632;28;20449;-68
2023/05/03 03:41:33;;;;;;;15.73;6.50;;;;;;;;;;5010148;28;20818;-68
2023/05/03 03:44:01;;;;;;;10.87;5.67;;;;;;;;;;5010750;28;20444;-68
2023/05/03 03:46:28;;;;;;;8.77;5.40;;;;;;;;;;5026449;28;20449;-68
2023/05/03 03:48:57;;;;;;;14.37;5.83;;;;;;;;;;5010265;28;20462;-68
2023/05/03 03:51:26;;;;;;;10.17;5.20;;;;;;;;;;5009579;28;20477;-71
2023/05/03 03:53:53;;;;;;;11.77;5.50;;;;;;;;;;4994560;28;20533;-68
2023/05/03 03:56:24;;;;;;;13.00;5.60;;;;;;;;;;5007467;28;21020;-68
2023/05/03 03:58:52;;;;;;;11.13;5.43;;;;;;;;;;5008054;28;20484;-68
2023/05/03 04:01:19;;;;;;;10.93;5.37;;;;;;;;;;5028835;28;20442;-68
2023/05/03 04:03:47;;;;;;;9.80;5.20;;;;;;;;;;5028148;28;21017;-69
2023/05/03 04:06:14;;;;;;;11.33;5.07;;;;;;;;;;5010797;28;20473;-68
2023/05/03 04:08:41;;;;;;;9.63;5.23;;;;;;;;;;5010524;28;20531;-69
2023/05/03 04:11:10;;;;;;;9.50;5.10;;;;;;;;;;5008870;28;20568;-70
2023/05/03 04:13:42;;;;;;;9.27;5.03;;;;;;;;;;5008706;28;21202;-69
2023/05/03 04:16:10;;;;;;;8.53;4.90;;;;;;;;;;5028116;28;20437;-70
2023/05/03 04:18:37;;;;;;;8.13;4.40;;;;;;;;;;5009901;28;20437;-68
2023/05/03 04:21:07;;;;;;;9.30;4.70;;;;;;;;;;5007023;28;20935;-68
2023/05/03 04:23:34;;;;;;;7.87;4.40;;;;;;;;;;5016333;28;20450;-69
2023/05/03 04:26:03;;;;;;;8.37;3.90;;;;;;;;;;5010939;28;20630;-71
2023/05/03 04:28:33;;;;;;;9.53;4.03;;;;;;;;;;4979234;28;20540;-71
2023/05/03 04:31:01;;;;;;;8.97;4.13;;;;;;;;;;4994779;28;20326;-71
2023/05/03 04:33:30;;;;;;;7.77;4.27;;;;;;;;;;4994181;28;20312;-70
2023/05/03 04:36:03;;;;;;;7.23;4.20;;;;;;;;;;5026599;28;20275;-67
2023/05/03 04:38:33;;;;;;;8.03;3.70;;;;;;;;;;5009390;28;20523;-66
2023/05/03 04:41:02;;;;;;;7.73;3.90;;;;;;;;;;5031160;28;20454;-65
2023/05/03 04:43:29;;;;;;;9.80;4.07;;;;;;;;;;5006510;28;20305;-67
2023/05/03 04:45:56;;;;;;;6.40;3.67;;;;;;;;;;5028479;28;20195;-65
2023/05/03 04:48:25;;;;;;;9.37;3.63;;;;;;;;;;4996460;28;20448;-64
2023/05/03 04:50:52;;;;;;;6.33;3.57;;;;;;;;;;5030292;28;20570;-66
2023/05/03 04:53:21;;;;;;;7.03;3.37;;;;;;;;;;5022018;28;20866;-66
2023/05/03 04:56:00;;;;;;;7.67;3.70;;;;;;;;;;5012258;28;20616;-68
2023/05/03 04:58:30;;;;;;;10.33;4.40;;;;;;;;;;5012731;28;20209;-68
2023/05/03 05:00:57;;;;;;;5.10;3.00;;;;;;;;;;5010201;28;20196;-66
2023/05/03 05:03:30;;;;;;;6.60;3.37;;;;;;;;;;5012336;28;20779;-68
2023/05/03 05:06:00;;;;;;;5.80;3.13;;;;;;;;;;5029632;28;20458;-68
2023/05/03 05:08:27;;;;;;;7.67;2.90;;;;;;;;;;5011682;28;20203;-68
2023/05/03 05:10:56;;;;;;;5.87;3.30;;;;;;;;;;5007637;28;20466;-68
2023/05/03 05:13:29;;;;;;;6.13;3.30;;;;;;;;;;5010374;28;20865;-68
2023/05/03 05:15:56;;;;;;;7.73;3.10;;;;;;;;;;5011207;28;20199;-68
2023/05/03 05:18:22;;;;;;;6.53;3.13;;;;;;;;;;5012613;28;20242;-68
2023/05/03 05:20:51;;;;;;;5.73;3.43;;;;;;;;;;5011003;28;20234;-67
2023/05/03 05:23:24;;;;;;;3.43;2.33;;;;;;;;;;5011929;28;20650;-67
2023/05/03 05:25:52;;;;;;;5.80;2.90;;;;;;;;;;5009506;28;20211;-68
2023/05/03 05:28:20;;;;;;;5.97;2.87;;;;;;;;;;5028191;28;20199;-66
2023/05/03 05:30:46;;;;;;;6.37;3.00;;;;;;;;;;5029006;28;20196;-66
2023/05/03 05:33:14;;;;;;;4.07;2.67;;;;;;;;;;5012221;28;20558;-68
2023/05/03 05:35:45;;;;;;;3.90;2.73;;;;;;;;;;5012213;28;20199;-68
2023/05/03 05:38:12;;;;;;;10.73;3.20;;;;;;;;;;4995661;28;20195;-68
2023/05/03 05:40:43;;;;;;;3.57;2.77;;;;;;;;;;5012052;28;20286;-68
2023/05/03 05:43:13;;;;;;;3.73;2.50;;;;;;;;;;5028511;28;20258;-68
2023/05/03 05:45:44;;;;;;;4.90;2.60;;;;;;;;;;5012211;28;20600;-67
2023/05/03 05:48:12;;;;;;;5.13;2.73;;;;;;;;;;5016227;28;20202;-68
2023/05/03 05:50:40;;;;;;;5.93;2.77;;;;;;;;;;5031933;28;20652;-66
2023/05/03 05:53:10;;;;;;;6.13;2.90;;;;;;;;;;5012127;28;20211;-67
2023/05/03 05:55:43;;;;;;;4.27;2.50;;;;;;;;;;5011485;28;20202;-68
2023/05/03 05:58:12;;;;;;;5.70;2.93;;;;;;;;;;4995749;28;20203;-68
2023/05/03 06:00:50;;;;;;;7.60;3.00;;;;;;;;;;5010688;28;20194;-69
2023/05/03 06:03:17;;;;;;;4.63;2.60;;;;;;;;;;5010709;28;20200;-68
2023/05/03 06:05:46;;;;;;;6.10;2.67;;;;;;;;;;5008691;28;20261;-68
2023/05/03 06:08:13;;;;;;;5.10;2.73;;;;;;;;;;4998660;28;20191;-71
2023/05/03 06:10:40;;;;;;;5.90;2.57;;;;;;;;;;5007846;28;20761;-67
2023/05/03 06:13:08;;;;;;;4.90;2.27;;;;;;;;;;5023803;28;20219;-68
2023/05/03 06:15:35;;;;;;;3.80;2.33;;;;;;;;;;5007290;28;20195;-67
2023/05/03 06:18:03;;;;;;;3.37;2.17;;;;;;;;;;5008810;28;20298;-64
2023/05/03 06:20:30;;;;;;;4.67;2.80;;;;;;;;;;5003308;28;20306;-66
2023/05/03 06:23:00;;;;;;;5.47;3.03;;;;;;;;;;5004259;28;20289;-66
2023/05/03 06:25:27;;;;;;;4.57;2.67;;;;;;;;;;5004423;28;20223;-69
2023/05/03 06:27:56;;;;;;;3.43;2.20;;;;;;;;;;5005406;28;20196;-69
2023/05/03 06:30:27;;;;;;;2.47;1.90;;;;;;;;;;5002476;28;20210;-71
2023/05/03 06:33:00;;;;;;;3.57;2.40;;;;;;;;;;4998965;28;20294;-69
2023/05/03 06:35:30;;;;;;;4.10;1.90;;;;;;;;;;5002301;28;20211;-69
2023/05/03 06:37:56;;;;;;;5.40;2.37;;;;;;;;;;5005747;28;20259;-68
2023/05/03 06:40:25;;;;;;;3.40;2.20;;;;;;;;;;5003817;28;20204;-68
2023/05/03 06:42:51;;;;;;;5.17;2.00;;;;;;;;;;5005999;28;21111;-69
2023/05/03 06:45:30;;;;;;;3.37;2.20;;;;;;;;;;5004282;28;20195;-67
2023/05/03 06:47:57;;;;;;;4.03;2.10;;;;;;;;;;4997238;28;20211;-67
2023/05/03 06:50:25;;;;;;;3.47;1.57;;;;;;;;;;5003123;28;20196;-69
2023/05/03 06:52:52;;;;;;;3.83;1.60;;;;;;;;;;5004830;28;20247;-66
2023/05/03 06:55:19;;;;;;;4.60;1.80;;;;;;;;;;5005458;28;20552;-67
2023/05/03 06:57:51;;;;;;;4.40;1.87;;;;;;;;;;5004609;28;20216;-68
2023/05/03 07:00:18;;;;;;;2.60;1.50;;;;;;;;;;5003566;28;20246;-69
2023/05/03 07:02:45;;;;;;;2.73;1.50;;;;;;;;;;4985473;28;20877;-68
2023/05/03 07:05:12;;;;;;;3.23;1.60;;;;;;;;;;5002533;28;20192;-69
2023/05/03 07:07:38;;;;;;;1.90;1.30;;;;;;;;;;5005800;28;20196;-70
2023/05/03 07:10:06;;;;;;;1.87;1.23;;;;;;;;;;4991845;28;20232;-69
2023/05/03 07:12:33;;;;;;;2.10;1.37;;;;;;;;;;5002982;28;20707;-69
2023/05/03 07:15:00;;;;;;;1.93;1.23;;;;;;;;;;5005165;28;20323;-69
2023/05/03 07:17:28;;;;;;;3.87;0.80;;;;;;;;;;4988997;28;20196;-70
2023/05/03 07:19:56;;;;;;;1.77;0.87;;;;;;;;;;5009479;28;20223;-69
2023/05/03 07:22:26;;;;;;;1.60;0.70;;;;;;;;;;4992123;28;20600;-70
2023/05/03 07:24:58;;;;;;;1.90;0.93;;;;;;;;;;5025760;28;20666;-69
2023/05/03 07:27:25;;;;;;;1.67;0.93;;;;;;;;;;5008330;28;20191;-71
2023/05/03 07:29:53;;;;;;;1.47;0.90;;;;;;;;;;5033546;28;20637;-70
2023/05/03 07:32:23;;;;;;;2.07;1.10;;;;;;;;;;5037335;28;20305;-71
2023/05/03 07:34:50;;;;;;;3.33;0.90;;;;;;;;;;5016227;28;20586;-70
2023/05/03 07:37:18;;;;;;;2.67;1.13;;;;;;;;;;5006114;28;20200;-69
2023/05/03 07:39:45;;;;;;;2.60;1.00;;;;;;;;;;5015824;28;20191;-69
2023/05/03 07:42:12;;;;;;;1.70;0.80;;;;;;;;;;5025603;28;20278;-71
2023/05/03 07:44:39;;;;;;;2.50;0.90;;;;;;;;;;5024379;28;20216;-69
2023/05/03 07:47:06;;;;;;;2.87;1.07;;;;;;;;;;5006689;28;20192;-69
2023/05/03 07:49:35;;;;;;;1.93;0.93;;;;;;;;;;5024652;28;20183;-69
2023/05/03 07:52:02;;;;;;;1.27;1.00;;;;;;;;;;4991705;28;20285;-68
2023/05/03 07:54:28;;;;;;;2.93;1.00;;;;;;;;;;5012933;28;20245;-71
2023/05/03 07:56:55;;;;;;;3.20;0.93;;;;;;;;;;5007159;28;20199;-71
2023/05/03 07:59:22;;;;;;;2.60;1.00;;;;;;;;;;5024533;28;20270;-71
2023/05/03 08:01:49;;;;;;;1.77;1.00;;;;;;;;;;5026338;28;20242;-70
2023/05/03 08:04:15;;;;;;;3.70;1.00;;;;;;;;;;5024889;28;20302;-70
2023/05/03 08:06:43;;;;;;;2.37;0.90;;;;;;;;;;5008133;28;20194;-70
2023/05/03 08:09:10;;;;;;;2.60;0.90;;;;;;;;;;5015980;28;20235;-70
2023/05/03 08:11:37;;;;;;;1.33;0.80;;;;;;;;;;5008427;28;20259;-70
2023/05/03 08:14:04;;;;;;;2.77;1.00;;;;;;;;;;5023387;28;20270;-67
2023/05/03 08:16:31;;;;;;;4.57;1.10;;;;;;;;;;5025328;28;20294;-66
2023/05/03 08:18:57;;;;;;;2.13;0.80;;;;;;;;;;5025087;28;20278;-67
2023/05/03 08:21:27;;;;;;;1.77;0.77;;;;;;;;;;5024852;28;20235;-67
2023/05/03 08:23:54;;;;;;;3.37;1.13;;;;;;;;;;5022751;28;20200;-67
2023/05/03 08:26:21;;;;;;;2.43;1.00;;;;;;;;;;5004948;28;20989;-66
2023/05/03 08:28:47;;;;;;;3.43;0.90;;;;;;;;;;5012229;28;20215;-68
2023/05/03 08:31:15;;;;;;;1.50;0.77;;;;;;;;;;5025334;28;20196;-69
2023/05/03 08:33:42;;;;;;;1.13;1.03;;;;;;;;;;5024332;28;20243;-68
2023/05/03 08:36:09;;;;;;;6.27;0.97;;;;;;;;;;5022046;28;20196;-68
2023/05/03 08:38:40;;;;;;;3.70;0.87;;;;;;;;;;4989312;28;20207;-68
2023/05/03 08:41:26;;;;;;;2.60;0.87;;;;;;;;;;4992252;28;20199;-68
2023/05/03 08:43:57;;;;;;;2.80;0.83;;;;;;;;;;5005019;28;20830;-67
2023/05/03 08:46:24;;;;;;;1.87;0.77;;;;;;;;;;5009003;28;20199;-67
2023/05/03 08:48:51;;;;;;;0.77;0.60;;;;;;;;;;5029830;28;20191;-66
2023/05/03 08:51:19;;;;;;;2.70;0.80;;;;;;;;;;5028747;28;20202;-66
2023/05/03 08:53:46;;;;;;;1.47;0.73;;;;;;;;;;5010863;28;20706;-68
2023/05/03 08:56:15;;;;;;;1.10;0.60;;;;;;;;;;5024565;28;20285;-68
2023/05/03 08:58:42;;;;;;;1.13;0.60;;;;;;;;;;5007554;28;20336;-68
2023/05/03 09:01:09;;;;;;;1.30;0.60;;;;;;;;;;5037609;28;20527;-67
2023/05/03 09:03:36;;;;;;;1.40;0.80;;;;;;;;;;5039050;28;20671;-68
2023/05/03 09:06:06;;;;;;;13.63;1.90;;;;;;;;;;5028288;28;20245;-68
2023/05/03 09:08:40;;;;;;;1.70;0.57;;;;;;;;;;5008150;28;20226;-67
2023/05/03 09:11:18;;;;;;;2.37;0.70;;;;;;;;;;5026466;28;20535;-67
2023/05/03 09:13:45;;;;;;;0.93;0.57;;;;;;;;;;5025274;28;20682;-67
2023/05/03 09:16:12;;;;;;;1.70;0.70;;;;;;;;;;5027212;28;20287;-67
2023/05/03 09:18:42;;;;;;;0.97;0.73;;;;;;;;;;5010667;28;20195;-67
2023/05/03 09:21:09;;;;;;;0.90;0.70;;;;;;;;;;5008490;28;20938;-59
2023/05/03 09:23:37;;;;;;;1.93;0.70;;;;;;;;;;5010877;28;20230;-59
2023/05/03 09:26:04;;;;;;;4.27;0.70;;;;;;;;;;5010143;28;20715;-66
2023/05/03 09:28:39;;;;;;;2.40;0.70;;;;;;;;;;5027807;28;20195;-66
2023/05/03 09:31:06;;;;;;;1.13;0.73;;;;;;;;;;5010188;28;20286;-66
2023/05/03 09:33:33;;;;;;;1.47;0.70;;;;;;;;;;5026794;28;20277;-67
2023/05/03 09:36:00;;;;;;;1.10;0.70;;;;;;;;;;5026475;28;20230;-67
2023/05/03 09:38:28;;;;;;;3.03;0.77;;;;;;;;;;5024769;28;20554;-67
2023/05/03 09:40:55;;;;;;;1.03;0.60;;;;;;;;;;5027051;28;20629;-68
2023/05/03 09:43:24;;;;;;;1.00;0.80;;;;;;;;;;5009313;28;20187;-67
2023/05/03 09:45:51;;;;;;;1.27;0.80;;;;;;;;;;5025558;28;20191;-68
2023/05/03 09:48:22;;;;;;;2.37;0.70;;;;;;;;;;5026785;28;20238;-67
2023/05/03 09:50:49;;;;;;;3.10;0.70;;;;;;;;;;5013365;28;20191;-68
2023/05/03 09:53:17;;;;;;;1.57;0.83;;;;;;;;;;5027330;28;20297;-68
2023/05/03 09:55:44;;;;;;;1.53;0.67;;;;;;;;;;5021826;28;20513;-67
2023/05/03 09:58:11;;;;;;;1.63;0.60;;;;;;;;;;5020380;28;20201;-68
2023/05/03 10:00:40;;;;;;;1.23;0.70;;;;;;;;;;5009285;28;20200;-68
2023/05/03 10:03:08;;;;;;;3.37;0.73;;;;;;;;;;5024764;28;20203;-68
2023/05/03 10:05:41;;;;;;;6.27;0.90;;;;;;;;;;5021824;28;20187;-68
2023/05/03 10:08:10;;;;;;;8.13;1.10;;;;;;;;;;5008661;28;20547;-68
2023/05/03 10:10:36;;;;;;;1.70;0.80;;;;;;;;;;5026601;28;20215;-67
2023/05/03 10:13:03;;;;;;;1.87;0.60;;;;;;;;;;5009470;28;20299;-67
2023/05/03 10:15:30;;;;;;;16.47;1.57;;;;;;;;;;5019194;28;20570;-67
2023/05/03 10:17:58;;;;;;;4.13;0.80;;;;;;;;;;4991740;28;20548;-67
2023/05/03 10:20:35;;;;;;;1.20;0.60;;;;;;;;;;5030689;28;20230;-67
2023/05/03 10:23:03;;;;;;;1.43;0.60;;;;;;;;;;5004619;28;20196;-68
2023/05/03 10:25:30;;;;;;;2.00;0.70;;;;;;;;;;5004521;28;20273;-67
2023/05/03 10:28:07;;;;;;;1.50;0.60;;;;;;;;;;5021186;28;20200;-66
2023/05/03 10:30:36;;;;;;;1.43;0.90;;;;;;;;;;5028796;28;20187;-57
2023/05/03 10:33:08;;;;;;;3.73;0.80;;;;;;;;;;5029349;28;20215;-57
2023/05/03 10:35:41;;;;;;;1.03;0.60;;;;;;;;;;5032859;28;20298;-57
2023/05/03 10:38:13;;;;;;;5.97;0.90;;;;;;;;;;5041161;28;20237;-57
2023/05/03 10:40:43;;;;;;;3.33;0.80;;;;;;;;;;5025923;28;20192;-57
2023/05/03 10:43:31;;;;;;;1.63;0.70;;;;;;;;;;5032571;28;20195;-59
2023/05/03 10:46:02;;;;;;;1.03;0.73;;;;;;;;;;5032729;28;20194;-58
2023/05/03 10:48:29;;;;;;;1.37;0.60;;;;;;;;;;5030613;28;20187;-58
2023/05/03 10:50:57;;;;;;;9.23;1.67;;;;;;;;;;5033964;28;20275;-56
2023/05/03 10:53:34;;;;;;;2.30;0.70;;;;;;;;;;5024822;28;20209;-59
2023/05/03 10:56:45;;;;;;;3.90;0.83;;;;;;;;;;5025167;28;20195;-58
2023/05/03 10:59:51;;;;;;;1.47;0.60;;;;;;;;;;4942343;28;20749;-58
2023/05/03 11:02:18;;;;;;;3.90;0.80;;;;;;;;;;4945653;28;20202;-58
2023/05/03 11:04:46;;;;;;;4.60;0.90;;;;;;;;;;5000069;28;20204;-58
2023/05/03 11:07:21;;;;;;;31.60;15.47;;;;;;;;;;5027107;28;20198;-58
2023/05/03 11:09:48;;;;;;;13.70;6.00;;;;;;;;;;5033887;28;20562;-58
2023/05/03 11:12:16;;;;;;;3.63;1.73;;;;;;;;;;5026699;28;20187;-58
2023/05/03 11:14:43;;;;;;;8.67;1.67;;;;;;;;;;5008577;28;20198;-58
2023/05/03 11:17:10;;;;;;;52.73;3.07;;;;;;;;;;5021638;28;20187;-56
2023/05/03 11:19:38;;;;;;;343.13;28.03;;;;;;;;;;5031674;28;20188;-57
2023/05/03 11:22:06;;;;;;;7.97;1.30;;;;;;;;;;5032858;28;20191;-57
2023/05/03 11:24:36;;;;;;;1.27;0.67;;;;;;;;;;5013207;28;20741;-57
2023/05/03 11:27:03;;;;;;;1.20;0.90;;;;;;;;;;5026629;28;20201;-57
2023/05/03 11:29:34;;;;;;;15.37;1.30;;;;;;;;;;5031688;28;20657;-57
2023/05/03 11:32:01;;;;;;;2.50;0.60;;;;;;;;;;5033918;28;20195;-57
2023/05/03 11:34:30;;;;;;;2.50;0.80;;;;;;;;;;5021760;28;20222;-68
2023/05/03 11:36:57;;;;;;;2.97;0.80;;;;;;;;;;5027298;28;20253;-66
2023/05/03 11:39:24;;;;;;;1.83;0.70;;;;;;;;;;5003363;28;20281;-68
2023/05/03 11:42:03;;;;;;;1.83;0.80;;;;;;;;;;5026136;28;20199;-64
2023/05/03 11:44:30;;;;;;;9.37;1.20;;;;;;;;;;5039862;28;20210;-67
2023/05/03 11:46:57;;;;;;;34.97;27.70;;;;;;;;;;5035699;28;20277;-67
2023/05/03 11:49:24;;;;;;;3.03;1.70;;;;;;;;;;5031716;28;20191;-67
2023/05/03 11:51:52;;;;;;;7.67;6.17;;;;;;;;;;5027438;28;20692;-68
2023/05/03 11:54:21;;;;;;;3.80;1.47;;;;;;;;;;5027809;28;20265;-67
2023/05/03 11:57:00;;;;;;;2.70;2.30;;;;;;;;;;5037213;28;20278;-68
2023/05/03 11:59:37;;;;;;;4.13;3.73;;;;;;;;;;5040876;28;20213;-56
2023/05/03 12:02:05;;;;;;;2.33;1.43;;;;;;;;;;5025880;28;20203;-56
2023/05/03 12:04:33;;;;;;;1.77;1.07;;;;;;;;;;5028855;28;20184;-56
2023/05/03 12:07:02;;;;;;;2.03;0.80;;;;;;;;;;5030563;28;20192;-67
2023/05/03 12:09:30;;;;;;;2.37;0.90;;;;;;;;;;5021071;28;20187;-69
2023/05/03 12:12:04;;;;;;;3.70;0.90;;;;;;;;;;5029369;28;20662;-66
2023/05/03 12:14:54;;;;;;;3.60;1.30;;;;;;;;;;5037920;28;20231;-69
2023/05/03 12:17:34;;;;;;;6.67;1.50;;;;;;;;;;5021054;28;20179;-68
2023/05/03 12:20:16;;;;;;;3.50;1.87;;;;;;;;;;5039929;28;20226;-64
2023/05/03 12:23:12;;;;;;;3.20;1.00;;;;;;;;;;5031101;28;20251;-69
2023/05/03 12:25:41;;;;;;;14.43;10.33;;;;;;;;;;5030314;28;20248;-67
2023/05/03 12:28:10;;;;;;;2.60;1.33;;;;;;;;;;5020309;28;20555;-64
2023/05/03 12:30:40;;;;;;;296.60;211.67;;;;;;;;;;5033491;28;20183;-65
2023/05/03 12:33:11;;;;;;;271.83;120.03;;;;;;;;;;5050938;28;20261;-66
2023/05/03 12:35:41;;;;;;;13.03;10.03;;;;;;;;;;5023112;28;20199;-64
2023/05/03 12:38:13;;;;;;;12.47;11.23;;;;;;;;;;5050395;28;20585;-67
2023/05/03 12:40:43;;;;;;;17.53;15.13;;;;;;;;;;5036984;28;20233;-72
2023/05/03 12:43:11;;;;;;;1.87;0.70;;;;;;;;;;5007417;28;20191;-74
2023/05/03 12:45:38;;;;;;;1.83;1.17;;;;;;;;;;5028088;28;20197;-72
2023/05/03 12:48:07;;;;;;;4.07;1.00;;;;;;;;;;5033059;28;20927;-68
2023/05/03 12:50:34;;;;;;;5.30;2.47;;;;;;;;;;5036752;28;20202;-67
2023/05/03 12:53:06;;;;;;;18.57;16.93;;;;;;;;;;5049279;28;20209;-67
2023/05/03 12:55:37;;;;;;;5.60;3.23;;;;;;;;;;5031750;28;20683;-69
2023/05/03 12:58:10;;;;;;;4.30;2.90;;;;;;;;;;5029775;28;20225;-70
2023/05/03 13:00:40;;;;;;;62.00;55.97;;;;;;;;;;5012232;28;20187;-68
2023/05/03 13:03:27;;;;;;;3.13;1.30;;;;;;;;;;5046224;28;20656;-67
2023/05/03 13:05:59;;;;;;;13.43;10.10;;;;;;;;;;5043383;28;20763;-69
2023/05/03 13:08:27;;;;;;;14.43;9.00;;;;;;;;;;5047890;28;20972;-69
2023/05/03 13:11:00;;;;;;;2.90;1.50;;;;;;;;;;5029819;28;20190;-68
2023/05/03 13:13:27;;;;;;;2.67;1.30;;;;;;;;;;5049804;28;20233;-69
2023/05/03 13:15:54;;;;;;;2.80;1.63;;;;;;;;;;5049704;28;20191;-68
2023/05/03 13:18:21;;;;;;;2.43;1.00;;;;;;;;;;5034082;28;20191;-69
2023/05/03 13:20:50;;;;;;;10.93;1.40;;;;;;;;;;5021286;28;20585;-73
2023/05/03 13:23:17;;;;;;;2.70;0.90;;;;;;;;;;5031799;28;20194;-73
2023/05/03 13:25:44;;;;;;;2.33;1.20;;;;;;;;;;5028549;28;20281;-72
2023/05/03 13:28:12;;;;;;;2.77;1.00;;;;;;;;;;5005794;28;20446;-72
2023/05/03 13:30:40;;;;;;;1.53;0.80;;;;;;;;;;5034670;28;20191;-73
2023/05/03 13:33:07;;;;;;;4.80;1.03;;;;;;;;;;5031071;28;20902;-73
2023/05/03 13:35:34;;;;;;;40.70;4.10;;;;;;;;;;5036398;28;20686;-73
2023/05/03 13:38:01;;;;;;;8.77;1.63;;;;;;;;;;5039533;28;20214;-73
2023/05/03 13:40:28;;;;;;;3.10;1.20;;;;;;;;;;5044106;28;20187;-73
2023/05/03 13:42:55;;;;;;;2.83;0.97;;;;;;;;;;5026814;28;20218;-73
2023/05/03 13:45:22;;;;;;;3.20;1.20;;;;;;;;;;5048974;28;20182;-72
2023/05/03 13:47:49;;;;;;;2.50;1.10;;;;;;;;;;5031897;28;20640;-73
2023/05/03 13:50:42;;;;;;;2.53;1.00;;;;;;;;;;5016190;28;20241;-72
2023/05/03 13:53:09;;;;;;;5.23;1.30;;;;;;;;;;5044899;28;20678;-72
2023/05/03 13:55:36;;;;;;;1.97;1.20;;;;;;;;;;5022955;28;20610;-72
2023/05/03 13:58:03;;;;;;;2.40;1.20;;;;;;;;;;5028042;28;20194;-73
2023/05/03 14:00:30;;;;;;;4.90;1.63;;;;;;;;;;5011483;28;20191;-72
2023/05/03 14:03:01;;;;;;;4.10;1.50;;;;;;;;;;5017226;28;20188;-73
2023/05/03 14:05:29;;;;;;;4.83;1.40;;;;;;;;;;5042178;28;20301;-73
2023/05/03 14:07:57;;;;;;;6.27;1.70;;;;;;;;;;5048578;28;20232;-74
2023/05/03 14:10:48;;;;;;;3.17;1.60;;;;;;;;;;5048666;28;20174;-74
2023/05/03 14:13:15;;;;;;;4.90;1.80;;;;;;;;;;5049047;28;20206;-73
2023/05/03 14:15:42;;;;;;;5.53;1.70;;;;;;;;;;5023365;28;20209;-73
2023/05/03 14:18:09;;;;;;;4.40;1.93;;;;;;;;;;5049518;28;20543;-73
2023/05/03 14:20:37;;;;;;;6.93;2.00;;;;;;;;;;5031576;28;20317;-72
2023/05/03 14:23:06;;;;;;;4.33;1.80;;;;;;;;;;5035920;28;20785;-74
2023/05/03 14:25:33;;;;;;;5.00;1.87;;;;;;;;;;5009885;28;20222;-72
2023/05/03 14:28:01;;;;;;;4.10;1.50;;;;;;;;;;5028975;28;20290;-73
2023/05/03 14:30:29;;;;;;;6.47;2.23;;;;;;;;;;5009730;28;20215;-72
2023/05/03 14:32:56;;;;;;;9.03;2.47;;;;;;;;;;5011361;28;20218;-68
2023/05/03 14:35:23;;;;;;;4.90;2.00;;;;;;;;;;5009866;28;20558;-70
2023/05/03 14:37:50;;;;;;;6.83;1.80;;;;;;;;;;5034300;28;20187;-76
2023/05/03 14:40:19;;;;;;;7.07;2.17;;;;;;;;;;5007965;28;20324;-70
2023/05/03 14:42:46;;;;;;;5.37;1.80;;;;;;;;;;5011320;28;20183;-72
2023/05/03 14:45:13;;;;;;;5.77;1.60;;;;;;;;;;5010799;28;20606;-71
2023/05/03 14:47:41;;;;;;;7.60;2.50;;;;;;;;;;5028951;28;20198;-72
2023/05/03 14:50:08;;;;;;;11.70;5.07;;;;;;;;;;5010642;28;20198;-70
2023/05/03 14:52:36;;;;;;;6.10;4.73;;;;;;;;;;5033821;28;20203;-72
2023/05/03 14:55:05;;;;;;;7.23;3.70;;;;;;;;;;5030320;28;20208;-70
2023/05/03 14:57:33;;;;;;;5.93;2.50;;;;;;;;;;5016955;28;20203;-73
2023/05/03 15:00:06;;;;;;;5.33;2.03;;;;;;;;;;5004784;28;20202;-71
2023/05/03 15:02:35;;;;;;;7.27;1.83;;;;;;;;;;5025987;28;20274;-71
2023/05/03 15:05:03;;;;;;;6.87;2.23;;;;;;;;;;5020823;28;20191;-72
2023/05/03 15:07:32;;;;;;;4.70;2.10;;;;;;;;;;5021598;28;20206;-72
2023/05/03 15:10:02;;;;;;;4.13;1.73;;;;;;;;;;5027305;28;20195;-69
2023/05/03 15:12:30;;;;;;;6.10;2.00;;;;;;;;;;5032347;28;20519;-69
2023/05/03 15:14:58;;;;;;;4.57;2.10;;;;;;;;;;5029629;28;20217;-70
2023/05/03 15:17:29;;;;;;;6.13;2.07;;;;;;;;;;5028893;28;20214;-67
2023/05/03 15:19:56;;;;;;;6.03;2.33;;;;;;;;;;5025712;28;20733;-69